sensor_id;sensor_type;location;lat;lon;timestamp;temperature;humidity
8563;DHT22;16392;52.508;13.468;2023-07-31T00:01:43;15.30;99.90
8563;DHT22;16392;52.508;13.468;2023-07-31T00:04:10;15.20;99.90
8563;DHT22;16392;52.508;13.468;2023-07-31T00:06:38;15.20;99.90
8563;DHT22;16392;52.508;13.468;2023-07-31T00:09:05;15.20;99.90
8563;DHT22;16392;52.508;13.468;2023-07-31T00:11:31;15.10;99.90
8563;DHT22;16392;52.508;13.468;2023-07-31T00:13:58;15.10;99.90
8563;DHT22;16392;52.508;13.468;2023-07-31T00:16:25;15.10;99.90
8563;DHT22;16392;52.508;13.468;2023-07-31T00:18:51;15.10;99.90
8563;DHT22;16392;52.508;13.468;2023-07-31T00:21:18;15.00;99.90
8563;DHT22;16392;52.508;13.468;2023-07-31T00:23:46;15.00;99.90
8563;DHT22;16392;52.508;13.468;2023-07-31T00:26:12;15.00;99.90
8563;DHT22;16392;52.508;13.468;2023-07-31T00:28:39;15.00;99.90
8563;DHT22;16392;52.508;13.468;2023-07-31T00:31:06;15.00;99.90
8563;DHT22;16392;52.508;13.468;2023-07-31T00:33:35;15.10;99.90
8563;DHT22;16392;52.508;13.468;2023-07-31T00:36:02;15.10;99.90
8563;DHT22;16392;52.508;13.468;2023-07-31T00:38:28;15.10;99.90
8563;DHT22;16392;52.508;13.468;2023-07-31T00:40:56;15.10;99.90
8563;DHT22;16392;52.508;13.468;2023-07-31T00:43:24;15.10;99.90
8563;DHT22;16392;52.508;13.468;2023-07-31T00:45:50;15.10;99.90
8563;DHT22;16392;52.508;13.468;2023-07-31T00:48:17;15.10;99.90
8563;DHT22;16392;52.508;13.468;2023-07-31T00:50:44;15.10;99.90
8563;DHT22;16392;52.508;13.468;2023-07-31T00:53:10;15.10;99.90
8563;DHT22;16392;52.508;13.468;2023-07-31T00:55:37;15.10;99.90
8563;DHT22;16392;52.508;13.468;2023-07-31T00:58:05;15.10;99.90
8563;DHT22;16392;52.508;13.468;2023-07-31T01:00:32;15.10;99.90
8563;DHT22;16392;52.508;13.468;2023-07-31T01:02:58;15.10;99.90
8563;DHT22;16392;52.508;13.468;2023-07-31T01:05:31;15.20;99.90
8563;DHT22;16392;52.508;13.468;2023-07-31T01:08:05;15.20;99.90
8563;DHT22;16392;52.508;13.468;2023-07-31T01:10:39;15.20;99.90
8563;DHT22;16392;52.508;13.468;2023-07-31T01:13:09;15.20;99.90
8563;DHT22;16392;52.508;13.468;2023-07-31T01:15:36;15.30;99.90
8563;DHT22;16392;52.508;13.468;2023-07-31T01:18:04;15.30;99.90
8563;DHT22;16392;52.508;13.468;2023-07-31T01:20:32;15.30;99.90
8563;DHT22;16392;52.508;13.468;2023-07-31T01:23:20;15.30;99.90
8563;DHT22;16392;52.508;13.468;2023-07-31T01:26:03;15.30;99.90
8563;DHT22;16392;52.508;13.468;2023-07-31T01:28:40;15.30;99.90
8563;DHT22;16392;52.508;13.468;2023-07-31T01:31:16;15.30;99.90
8563;DHT22;16392;52.508;13.468;2023-07-31T01:33:45;15.30;99.90
8563;DHT22;16392;52.508;13.468;2023-07-31T01:36:12;15.30;99.90
8563;DHT22;16392;52.508;13.468;2023-07-31T01:38:39;15.30;99.90
8563;DHT22;16392;52.508;13.468;2023-07-31T01:41:07;15.30;99.90
8563;DHT22;16392;52.508;13.468;2023-07-31T01:43:33;15.30;99.90
8563;DHT22;16392;52.508;13.468;2023-07-31T01:46:00;15.30;99.90
8563;DHT22;16392;52.508;13.468;2023-07-31T01:48:27;15.40;99.90
8563;DHT22;16392;52.508;13.468;2023-07-31T01:50:53;15.40;99.90
8563;DHT22;16392;52.508;13.468;2023-07-31T01:53:20;15.40;99.90
8563;DHT22;16392;52.508;13.468;2023-07-31T01:55:47;15.40;99.90
8563;DHT22;16392;52.508;13.468;2023-07-31T01:58:14;15.40;99.90
8563;DHT22;16392;52.508;13.468;2023-07-31T02:00:41;15.40;99.90
8563;DHT22;16392;52.508;13.468;2023-07-31T02:03:08;15.40;99.90
8563;DHT22;16392;52.508;13.468;2023-07-31T02:05:34;15.40;99.90
8563;DHT22;16392;52.508;13.468;2023-07-31T02:08:01;15.40;99.90
8563;DHT22;16392;52.508;13.468;2023-07-31T02:10:28;15.30;99.90
8563;DHT22;16392;52.508;13.468;2023-07-31T02:12:55;15.40;99.90
8563;DHT22;16392;52.508;13.468;2023-07-31T02:15:24;15.40;99.90
8563;DHT22;16392;52.508;13.468;2023-07-31T02:17:51;15.50;99.90
8563;DHT22;16392;52.508;13.468;2023-07-31T02:20:17;15.50;99.90
8563;DHT22;16392;52.508;13.468;2023-07-31T02:22:44;15.50;99.90
8563;DHT22;16392;52.508;13.468;2023-07-31T02:25:11;15.50;99.90
8563;DHT22;16392;52.508;13.468;2023-07-31T02:27:37;15.50;99.90
8563;DHT22;16392;52.508;13.468;2023-07-31T02:30:04;15.50;99.90
8563;DHT22;16392;52.508;13.468;2023-07-31T02:32:33;15.50;99.90
8563;DHT22;16392;52.508;13.468;2023-07-31T02:34:59;15.50;99.90
8563;DHT22;16392;52.508;13.468;2023-07-31T02:37:26;15.50;99.90
8563;DHT22;16392;52.508;13.468;2023-07-31T02:39:54;15.50;99.90
8563;DHT22;16392;52.508;13.468;2023-07-31T02:42:21;15.50;99.90
8563;DHT22;16392;52.508;13.468;2023-07-31T02:44:47;15.50;99.90
8563;DHT22;16392;52.508;13.468;2023-07-31T02:47:14;15.50;99.90
8563;DHT22;16392;52.508;13.468;2023-07-31T02:49:43;15.50;99.90
8563;DHT22;16392;52.508;13.468;2023-07-31T02:52:10;15.50;99.90
8563;DHT22;16392;52.508;13.468;2023-07-31T02:54:37;15.50;99.90
8563;DHT22;16392;52.508;13.468;2023-07-31T02:57:04;15.50;99.90
8563;DHT22;16392;52.508;13.468;2023-07-31T02:59:31;15.50;99.90
8563;DHT22;16392;52.508;13.468;2023-07-31T03:01:57;15.50;99.90
8563;DHT22;16392;52.508;13.468;2023-07-31T03:04:24;15.50;99.90
8563;DHT22;16392;52.508;13.468;2023-07-31T03:06:52;15.50;99.90
8563;DHT22;16392;52.508;13.468;2023-07-31T03:09:19;15.50;99.90
8563;DHT22;16392;52.508;13.468;2023-07-31T03:11:45;15.50;99.90
8563;DHT22;16392;52.508;13.468;2023-07-31T03:14:12;15.50;99.90
8563;DHT22;16392;52.508;13.468;2023-07-31T03:16:39;15.50;99.90
8563;DHT22;16392;52.508;13.468;2023-07-31T03:19:05;15.50;99.90
8563;DHT22;16392;52.508;13.468;2023-07-31T03:21:32;15.50;99.90
8563;DHT22;16392;52.508;13.468;2023-07-31T03:24:00;15.50;99.90
8563;DHT22;16392;52.508;13.468;2023-07-31T03:26:27;15.50;99.90
8563;DHT22;16392;52.508;13.468;2023-07-31T03:28:55;15.50;99.90
8563;DHT22;16392;52.508;13.468;2023-07-31T03:31:21;15.50;99.90
8563;DHT22;16392;52.508;13.468;2023-07-31T03:33:48;15.40;99.90
8563;DHT22;16392;52.508;13.468;2023-07-31T03:36:15;15.50;99.90
8563;DHT22;16392;52.508;13.468;2023-07-31T03:38:42;15.50;99.90
8563;DHT22;16392;52.508;13.468;2023-07-31T03:41:10;15.50;99.90
8563;DHT22;16392;52.508;13.468;2023-07-31T03:43:37;15.50;99.90
8563;DHT22;16392;52.508;13.468;2023-07-31T03:46:03;15.50;99.90
8563;DHT22;16392;52.508;13.468;2023-07-31T03:48:30;15.50;99.90
8563;DHT22;16392;52.508;13.468;2023-07-31T03:50:57;15.50;99.90
8563;DHT22;16392;52.508;13.468;2023-07-31T03:53:23;15.50;99.90
8563;DHT22;16392;52.508;13.468;2023-07-31T03:56:03;15.50;99.90
8563;DHT22;16392;52.508;13.468;2023-07-31T03:58:31;15.50;99.90
8563;DHT22;16392;52.508;13.468;2023-07-31T04:00:57;15.50;99.90
8563;DHT22;16392;52.508;13.468;2023-07-31T04:03:24;15.50;99.90
8563;DHT22;16392;52.508;13.468;2023-07-31T04:05:51;15.50;99.90
8563;DHT22;16392;52.508;13.468;2023-07-31T04:08:17;15.50;99.90
8563;DHT22;16392;52.508;13.468;2023-07-31T04:10:44;15.60;99.90
8563;DHT22;16392;52.508;13.468;2023-07-31T04:13:11;15.60;99.90
8563;DHT22;16392;52.508;13.468;2023-07-31T04:15:39;15.60;99.90
8563;DHT22;16392;52.508;13.468;2023-07-31T04:18:06;15.60;99.90
8563;DHT22;16392;52.508;13.468;2023-07-31T04:20:33;15.60;99.90
8563;DHT22;16392;52.508;13.468;2023-07-31T04:22:59;15.70;99.90
8563;DHT22;16392;52.508;13.468;2023-07-31T04:25:26;15.70;99.90
8563;DHT22;16392;52.508;13.468;2023-07-31T04:27:53;15.70;99.90
8563;DHT22;16392;52.508;13.468;2023-07-31T04:30:19;15.70;99.90
8563;DHT22;16392;52.508;13.468;2023-07-31T04:32:47;15.70;99.90
8563;DHT22;16392;52.508;13.468;2023-07-31T04:35:14;15.80;99.90
8563;DHT22;16392;52.508;13.468;2023-07-31T04:37:40;15.80;99.90
8563;DHT22;16392;52.508;13.468;2023-07-31T04:40:08;15.80;99.90
8563;DHT22;16392;52.508;13.468;2023-07-31T04:42:34;15.80;99.90
8563;DHT22;16392;52.508;13.468;2023-07-31T04:45:01;15.90;99.90
8563;DHT22;16392;52.508;13.468;2023-07-31T04:47:28;15.80;99.90
8563;DHT22;16392;52.508;13.468;2023-07-31T04:49:56;15.90;99.90
8563;DHT22;16392;52.508;13.468;2023-07-31T04:52:22;15.90;99.90
8563;DHT22;16392;52.508;13.468;2023-07-31T04:54:49;15.90;99.90
8563;DHT22;16392;52.508;13.468;2023-07-31T04:57:16;15.90;99.90
8563;DHT22;16392;52.508;13.468;2023-07-31T04:59:42;15.90;99.90
8563;DHT22;16392;52.508;13.468;2023-07-31T05:02:11;15.90;99.90
8563;DHT22;16392;52.508;13.468;2023-07-31T05:04:39;15.90;99.90
8563;DHT22;16392;52.508;13.468;2023-07-31T05:07:07;15.90;99.90
8563;DHT22;16392;52.508;13.468;2023-07-31T05:09:34;15.90;99.90
8563;DHT22;16392;52.508;13.468;2023-07-31T05:12:00;15.90;99.90
8563;DHT22;16392;52.508;13.468;2023-07-31T05:14:27;16.00;99.90
8563;DHT22;16392;52.508;13.468;2023-07-31T05:16:54;16.00;99.90
8563;DHT22;16392;52.508;13.468;2023-07-31T05:19:20;16.10;99.90
8563;DHT22;16392;52.508;13.468;2023-07-31T05:21:47;16.10;99.90
8563;DHT22;16392;52.508;13.468;2023-07-31T05:24:15;16.20;99.90
8563;DHT22;16392;52.508;13.468;2023-07-31T05:26:42;16.20;99.90
8563;DHT22;16392;52.508;13.468;2023-07-31T05:29:08;16.30;99.90
8563;DHT22;16392;52.508;13.468;2023-07-31T05:31:35;16.20;99.90
8563;DHT22;16392;52.508;13.468;2023-07-31T05:34:03;16.20;99.90
8563;DHT22;16392;52.508;13.468;2023-07-31T05:36:30;16.20;99.90
8563;DHT22;16392;52.508;13.468;2023-07-31T05:38:57;16.20;99.90
8563;DHT22;16392;52.508;13.468;2023-07-31T05:41:25;16.30;99.90
8563;DHT22;16392;52.508;13.468;2023-07-31T05:43:51;16.30;99.90
8563;DHT22;16392;52.508;13.468;2023-07-31T05:46:18;16.30;99.90
8563;DHT22;16392;52.508;13.468;2023-07-31T05:48:45;16.30;99.90
8563;DHT22;16392;52.508;13.468;2023-07-31T05:51:11;16.30;99.90
8563;DHT22;16392;52.508;13.468;2023-07-31T05:53:40;16.10;99.90
8563;DHT22;16392;52.508;13.468;2023-07-31T05:56:07;16.20;99.90
8563;DHT22;16392;52.508;13.468;2023-07-31T05:58:35;16.20;99.90
8563;DHT22;16392;52.508;13.468;2023-07-31T06:01:01;16.20;99.90
8563;DHT22;16392;52.508;13.468;2023-07-31T06:03:28;16.30;99.90
8563;DHT22;16392;52.508;13.468;2023-07-31T06:05:56;16.30;99.90
8563;DHT22;16392;52.508;13.468;2023-07-31T06:08:22;16.30;99.90
8563;DHT22;16392;52.508;13.468;2023-07-31T06:10:49;16.30;99.90
8563;DHT22;16392;52.508;13.468;2023-07-31T06:13:16;16.30;99.90
8563;DHT22;16392;52.508;13.468;2023-07-31T06:15:44;16.30;99.90
8563;DHT22;16392;52.508;13.468;2023-07-31T06:18:11;16.40;99.90
8563;DHT22;16392;52.508;13.468;2023-07-31T06:20:38;16.50;99.90
8563;DHT22;16392;52.508;13.468;2023-07-31T06:23:06;16.50;99.90
8563;DHT22;16392;52.508;13.468;2023-07-31T06:25:32;16.50;99.90
8563;DHT22;16392;52.508;13.468;2023-07-31T06:27:59;16.50;99.90
8563;DHT22;16392;52.508;13.468;2023-07-31T06:30:26;16.40;99.90
8563;DHT22;16392;52.508;13.468;2023-07-31T06:32:54;16.50;99.90
8563;DHT22;16392;52.508;13.468;2023-07-31T06:35:20;16.50;99.90
8563;DHT22;16392;52.508;13.468;2023-07-31T06:37:47;16.50;99.90
8563;DHT22;16392;52.508;13.468;2023-07-31T06:40:16;16.70;99.90
8563;DHT22;16392;52.508;13.468;2023-07-31T06:42:43;16.80;99.90
8563;DHT22;16392;52.508;13.468;2023-07-31T06:45:10;16.70;99.90
8563;DHT22;16392;52.508;13.468;2023-07-31T06:47:37;16.70;99.90
8563;DHT22;16392;52.508;13.468;2023-07-31T06:50:05;16.90;99.90
8563;DHT22;16392;52.508;13.468;2023-07-31T06:52:32;17.00;99.90
8563;DHT22;16392;52.508;13.468;2023-07-31T06:55:17;17.20;99.90
8563;DHT22;16392;52.508;13.468;2023-07-31T06:57:44;17.30;99.90
8563;DHT22;16392;52.508;13.468;2023-07-31T07:00:12;17.40;99.90
8563;DHT22;16392;52.508;13.468;2023-07-31T07:02:39;17.20;99.90
8563;DHT22;16392;52.508;13.468;2023-07-31T07:05:09;17.20;99.90
8563;DHT22;16392;52.508;13.468;2023-07-31T07:07:36;17.20;99.90
8563;DHT22;16392;52.508;13.468;2023-07-31T07:10:03;17.30;99.90
8563;DHT22;16392;52.508;13.468;2023-07-31T07:12:31;17.20;99.90
8563;DHT22;16392;52.508;13.468;2023-07-31T07:14:58;17.10;99.90
8563;DHT22;16392;52.508;13.468;2023-07-31T07:17:26;17.20;99.90
8563;DHT22;16392;52.508;13.468;2023-07-31T07:19:52;17.20;99.90
8563;DHT22;16392;52.508;13.468;2023-07-31T07:22:21;17.30;99.90
8563;DHT22;16392;52.508;13.468;2023-07-31T07:24:48;17.30;99.90
8563;DHT22;16392;52.508;13.468;2023-07-31T07:27:15;17.20;99.90
8563;DHT22;16392;52.508;13.468;2023-07-31T07:29:45;17.10;99.90
8563;DHT22;16392;52.508;13.468;2023-07-31T07:32:12;17.20;99.90
8563;DHT22;16392;52.508;13.468;2023-07-31T07:34:39;17.30;99.90
8563;DHT22;16392;52.508;13.468;2023-07-31T07:37:05;17.40;99.90
8563;DHT22;16392;52.508;13.468;2023-07-31T07:39:34;17.30;99.90
8563;DHT22;16392;52.508;13.468;2023-07-31T07:42:00;17.40;99.90
8563;DHT22;16392;52.508;13.468;2023-07-31T07:44:29;17.40;99.90
8563;DHT22;16392;52.508;13.468;2023-07-31T07:46:55;17.50;99.90
8563;DHT22;16392;52.508;13.468;2023-07-31T07:49:22;17.60;99.90
8563;DHT22;16392;52.508;13.468;2023-07-31T07:51:49;17.80;99.90
8563;DHT22;16392;52.508;13.468;2023-07-31T07:54:15;18.20;99.90
8563;DHT22;16392;52.508;13.468;2023-07-31T07:56:44;18.20;99.90
8563;DHT22;16392;52.508;13.468;2023-07-31T07:59:11;18.60;99.90
8563;DHT22;16392;52.508;13.468;2023-07-31T08:01:37;18.30;99.90
8563;DHT22;16392;52.508;13.468;2023-07-31T08:04:05;18.00;99.90
8563;DHT22;16392;52.508;13.468;2023-07-31T08:06:31;18.00;99.90
8563;DHT22;16392;52.508;13.468;2023-07-31T08:08:59;18.00;99.90
8563;DHT22;16392;52.508;13.468;2023-07-31T08:11:30;18.10;99.90
8563;DHT22;16392;52.508;13.468;2023-07-31T08:13:58;18.30;99.90
8563;DHT22;16392;52.508;13.468;2023-07-31T08:16:25;18.50;99.90
8563;DHT22;16392;52.508;13.468;2023-07-31T08:18:52;18.30;99.90
8563;DHT22;16392;52.508;13.468;2023-07-31T08:21:18;17.70;99.90
8563;DHT22;16392;52.508;13.468;2023-07-31T08:23:45;17.40;99.90
8563;DHT22;16392;52.508;13.468;2023-07-31T08:26:15;17.60;99.90
8563;DHT22;16392;52.508;13.468;2023-07-31T08:28:41;17.60;99.90
8563;DHT22;16392;52.508;13.468;2023-07-31T08:31:09;17.60;99.90
8563;DHT22;16392;52.508;13.468;2023-07-31T08:33:36;17.70;99.90
8563;DHT22;16392;52.508;13.468;2023-07-31T08:36:03;17.70;99.90
8563;DHT22;16392;52.508;13.468;2023-07-31T08:38:30;17.90;99.90
8563;DHT22;16392;52.508;13.468;2023-07-31T08:40:57;17.80;99.90
8563;DHT22;16392;52.508;13.468;2023-07-31T08:43:26;17.70;99.90
8563;DHT22;16392;52.508;13.468;2023-07-31T08:45:53;17.50;99.90
8563;DHT22;16392;52.508;13.468;2023-07-31T08:48:21;17.80;99.90
8563;DHT22;16392;52.508;13.468;2023-07-31T08:50:48;17.80;99.90
8563;DHT22;16392;52.508;13.468;2023-07-31T08:53:15;17.80;99.90
8563;DHT22;16392;52.508;13.468;2023-07-31T08:55:43;17.90;99.90
8563;DHT22;16392;52.508;13.468;2023-07-31T08:58:12;18.00;99.90
8563;DHT22;16392;52.508;13.468;2023-07-31T09:00:39;18.00;99.90
8563;DHT22;16392;52.508;13.468;2023-07-31T09:03:09;18.00;99.90
8563;DHT22;16392;52.508;13.468;2023-07-31T09:05:42;18.20;99.90
8563;DHT22;16392;52.508;13.468;2023-07-31T09:08:10;18.20;99.90
8563;DHT22;16392;52.508;13.468;2023-07-31T09:10:40;18.30;99.90
8563;DHT22;16392;52.508;13.468;2023-07-31T09:13:08;18.60;99.90
8563;DHT22;16392;52.508;13.468;2023-07-31T09:15:35;18.50;99.90
8563;DHT22;16392;52.508;13.468;2023-07-31T09:18:03;18.80;99.90
8563;DHT22;16392;52.508;13.468;2023-07-31T09:20:30;18.80;99.90
8563;DHT22;16392;52.508;13.468;2023-07-31T09:23:05;18.70;99.90
8563;DHT22;16392;52.508;13.468;2023-07-31T09:25:33;18.30;99.90
8563;DHT22;16392;52.508;13.468;2023-07-31T09:28:01;18.30;99.90
8563;DHT22;16392;52.508;13.468;2023-07-31T09:30:28;18.10;99.90
8563;DHT22;16392;52.508;13.468;2023-07-31T09:33:00;18.10;99.90
8563;DHT22;16392;52.508;13.468;2023-07-31T09:35:29;18.10;99.90
8563;DHT22;16392;52.508;13.468;2023-07-31T09:37:57;17.90;99.90
8563;DHT22;16392;52.508;13.468;2023-07-31T09:40:31;17.60;99.90
8563;DHT22;16392;52.508;13.468;2023-07-31T09:42:59;17.30;99.90
8563;DHT22;16392;52.508;13.468;2023-07-31T09:45:27;17.20;99.90
8563;DHT22;16392;52.508;13.468;2023-07-31T09:47:53;17.20;99.90
8563;DHT22;16392;52.508;13.468;2023-07-31T09:50:22;17.30;99.90
8563;DHT22;16392;52.508;13.468;2023-07-31T09:52:50;17.40;99.90
8563;DHT22;16392;52.508;13.468;2023-07-31T09:55:17;17.60;99.90
8563;DHT22;16392;52.508;13.468;2023-07-31T09:57:47;17.80;99.90
8563;DHT22;16392;52.508;13.468;2023-07-31T10:00:15;17.90;99.90
8563;DHT22;16392;52.508;13.468;2023-07-31T10:02:45;17.90;99.90
8563;DHT22;16392;52.508;13.468;2023-07-31T10:05:13;18.00;99.90
8563;DHT22;16392;52.508;13.468;2023-07-31T10:07:43;18.20;99.90
8563;DHT22;16392;52.508;13.468;2023-07-31T10:10:10;18.40;99.90
8563;DHT22;16392;52.508;13.468;2023-07-31T10:12:37;18.20;99.90
8563;DHT22;16392;52.508;13.468;2023-07-31T10:15:06;18.30;99.90
8563;DHT22;16392;52.508;13.468;2023-07-31T10:17:35;18.50;99.90
8563;DHT22;16392;52.508;13.468;2023-07-31T10:20:03;18.50;99.90
8563;DHT22;16392;52.508;13.468;2023-07-31T10:22:30;18.60;99.90
8563;DHT22;16392;52.508;13.468;2023-07-31T10:24:58;18.70;99.90
8563;DHT22;16392;52.508;13.468;2023-07-31T10:27:25;18.70;99.90
8563;DHT22;16392;52.508;13.468;2023-07-31T10:29:54;18.60;99.90
8563;DHT22;16392;52.508;13.468;2023-07-31T10:32:22;18.50;99.90
8563;DHT22;16392;52.508;13.468;2023-07-31T10:34:51;18.50;99.90
8563;DHT22;16392;52.508;13.468;2023-07-31T10:37:25;18.30;99.90
8563;DHT22;16392;52.508;13.468;2023-07-31T10:39:57;18.30;99.90
8563;DHT22;16392;52.508;13.468;2023-07-31T10:42:29;18.50;99.90
8563;DHT22;16392;52.508;13.468;2023-07-31T10:44:58;18.80;99.90
8563;DHT22;16392;52.508;13.468;2023-07-31T10:47:26;19.20;99.90
8563;DHT22;16392;52.508;13.468;2023-07-31T10:49:52;19.50;99.90
8563;DHT22;16392;52.508;13.468;2023-07-31T10:52:20;20.00;99.90
8563;DHT22;16392;52.508;13.468;2023-07-31T10:54:49;20.50;99.90
8563;DHT22;16392;52.508;13.468;2023-07-31T10:57:19;21.10;99.90
8563;DHT22;16392;52.508;13.468;2023-07-31T10:59:47;21.20;99.90
8563;DHT22;16392;52.508;13.468;2023-07-31T11:02:26;21.70;99.90
8563;DHT22;16392;52.508;13.468;2023-07-31T11:05:08;21.50;99.90
8563;DHT22;16392;52.508;13.468;2023-07-31T11:07:48;22.00;99.90
8563;DHT22;16392;52.508;13.468;2023-07-31T11:10:18;21.20;99.90
8563;DHT22;16392;52.508;13.468;2023-07-31T11:12:45;21.70;99.90
8563;DHT22;16392;52.508;13.468;2023-07-31T11:15:12;21.50;99.90
8563;DHT22;16392;52.508;13.468;2023-07-31T11:17:41;21.50;99.90
8563;DHT22;16392;52.508;13.468;2023-07-31T11:20:08;21.50;99.90
8563;DHT22;16392;52.508;13.468;2023-07-31T11:22:35;21.40;99.90
8563;DHT22;16392;52.508;13.468;2023-07-31T11:25:02;21.30;99.90
8563;DHT22;16392;52.508;13.468;2023-07-31T11:27:30;21.60;99.90
8563;DHT22;16392;52.508;13.468;2023-07-31T11:30:00;22.00;99.90
8563;DHT22;16392;52.508;13.468;2023-07-31T11:32:27;22.10;99.90
8563;DHT22;16392;52.508;13.468;2023-07-31T11:34:55;22.00;99.90
8563;DHT22;16392;52.508;13.468;2023-07-31T11:37:22;21.70;99.90
8563;DHT22;16392;52.508;13.468;2023-07-31T11:39:59;22.00;99.90
8563;DHT22;16392;52.508;13.468;2023-07-31T11:42:26;22.00;99.90
8563;DHT22;16392;52.508;13.468;2023-07-31T11:44:52;22.00;99.90
8563;DHT22;16392;52.508;13.468;2023-07-31T11:47:20;22.00;99.90
8563;DHT22;16392;52.508;13.468;2023-07-31T11:49:47;21.90;99.90
8563;DHT22;16392;52.508;13.468;2023-07-31T11:52:17;21.70;99.90
8563;DHT22;16392;52.508;13.468;2023-07-31T11:54:45;21.60;99.90
8563;DHT22;16392;52.508;13.468;2023-07-31T11:57:13;21.60;99.90
8563;DHT22;16392;52.508;13.468;2023-07-31T11:59:40;21.60;99.90
8563;DHT22;16392;52.508;13.468;2023-07-31T12:02:06;21.50;99.90
8563;DHT22;16392;52.508;13.468;2023-07-31T12:04:33;21.60;99.90
8563;DHT22;16392;52.508;13.468;2023-07-31T12:07:00;21.50;99.90
8563;DHT22;16392;52.508;13.468;2023-07-31T12:09:28;21.30;99.90
8563;DHT22;16392;52.508;13.468;2023-07-31T12:11:57;21.10;99.90
8563;DHT22;16392;52.508;13.468;2023-07-31T12:14:28;21.10;99.90
8563;DHT22;16392;52.508;13.468;2023-07-31T12:16:55;21.10;99.90
8563;DHT22;16392;52.508;13.468;2023-07-31T12:19:22;21.30;99.90
8563;DHT22;16392;52.508;13.468;2023-07-31T12:21:49;21.50;99.90
8563;DHT22;16392;52.508;13.468;2023-07-31T12:24:18;21.80;99.90
8563;DHT22;16392;52.508;13.468;2023-07-31T12:26:47;21.90;99.90
8563;DHT22;16392;52.508;13.468;2023-07-31T12:29:15;22.20;99.90
8563;DHT22;16392;52.508;13.468;2023-07-31T12:31:42;22.30;99.90
8563;DHT22;16392;52.508;13.468;2023-07-31T12:34:15;21.80;99.90
8563;DHT22;16392;52.508;13.468;2023-07-31T12:36:46;21.40;99.90
8563;DHT22;16392;52.508;13.468;2023-07-31T12:39:14;21.60;99.90
8563;DHT22;16392;52.508;13.468;2023-07-31T12:41:41;22.30;99.90
8563;DHT22;16392;52.508;13.468;2023-07-31T12:44:10;22.50;93.10
8563;DHT22;16392;52.508;13.468;2023-07-31T12:46:37;22.60;75.20
8563;DHT22;16392;52.508;13.468;2023-07-31T12:49:03;21.80;99.90
8563;DHT22;16392;52.508;13.468;2023-07-31T12:51:30;22.20;99.90
8563;DHT22;16392;52.508;13.468;2023-07-31T12:53:57;22.00;99.90
8563;DHT22;16392;52.508;13.468;2023-07-31T12:56:23;21.90;99.90
8563;DHT22;16392;52.508;13.468;2023-07-31T12:58:50;21.70;99.90
8563;DHT22;16392;52.508;13.468;2023-07-31T13:01:18;21.70;99.90
8563;DHT22;16392;52.508;13.468;2023-07-31T13:03:45;21.90;99.90
8563;DHT22;16392;52.508;13.468;2023-07-31T13:06:12;21.80;99.90
8563;DHT22;16392;52.508;13.468;2023-07-31T13:08:38;21.80;99.90
8563;DHT22;16392;52.508;13.468;2023-07-31T13:11:05;21.50;99.90
8563;DHT22;16392;52.508;13.468;2023-07-31T13:13:32;21.60;99.90
8563;DHT22;16392;52.508;13.468;2023-07-31T13:15:58;21.50;99.90
8563;DHT22;16392;52.508;13.468;2023-07-31T13:18:26;21.30;99.90
8563;DHT22;16392;52.508;13.468;2023-07-31T13:20:53;21.40;99.90
8563;DHT22;16392;52.508;13.468;2023-07-31T13:23:20;21.60;99.90
8563;DHT22;16392;52.508;13.468;2023-07-31T13:25:47;21.70;99.90
8563;DHT22;16392;52.508;13.468;2023-07-31T13:28:13;21.80;99.90
8563;DHT22;16392;52.508;13.468;2023-07-31T13:30:41;21.80;99.90
8563;DHT22;16392;52.508;13.468;2023-07-31T13:33:08;21.60;99.90
8563;DHT22;16392;52.508;13.468;2023-07-31T13:35:36;21.30;99.90
8563;DHT22;16392;52.508;13.468;2023-07-31T13:38:03;21.30;99.90
8563;DHT22;16392;52.508;13.468;2023-07-31T13:40:31;21.50;99.90
8563;DHT22;16392;52.508;13.468;2023-07-31T13:42:57;21.70;99.90
8563;DHT22;16392;52.508;13.468;2023-07-31T13:45:24;22.20;99.90
8563;DHT22;16392;52.508;13.468;2023-07-31T13:47:51;22.50;99.90
8563;DHT22;16392;52.508;13.468;2023-07-31T13:50:17;22.60;99.90
8563;DHT22;16392;52.508;13.468;2023-07-31T13:52:47;22.30;99.90
8563;DHT22;16392;52.508;13.468;2023-07-31T13:55:14;22.30;99.90
8563;DHT22;16392;52.508;13.468;2023-07-31T13:57:41;22.80;99.90
8563;DHT22;16392;52.508;13.468;2023-07-31T14:00:09;22.60;99.90
8563;DHT22;16392;52.508;13.468;2023-07-31T14:02:36;22.70;99.90
8563;DHT22;16392;52.508;13.468;2023-07-31T14:05:03;22.50;94.40
8563;DHT22;16392;52.508;13.468;2023-07-31T14:07:31;22.50;99.90
8563;DHT22;16392;52.508;13.468;2023-07-31T14:09:59;22.50;98.20
8563;DHT22;16392;52.508;13.468;2023-07-31T14:12:26;22.40;99.90
8563;DHT22;16392;52.508;13.468;2023-07-31T14:14:53;22.20;99.90
8563;DHT22;16392;52.508;13.468;2023-07-31T14:17:19;22.30;99.90
8563;DHT22;16392;52.508;13.468;2023-07-31T14:19:46;22.40;99.90
8563;DHT22;16392;52.508;13.468;2023-07-31T14:22:13;22.30;99.90
8563;DHT22;16392;52.508;13.468;2023-07-31T14:24:39;22.40;99.90
8563;DHT22;16392;52.508;13.468;2023-07-31T14:27:08;22.40;99.90
8563;DHT22;16392;52.508;13.468;2023-07-31T14:29:35;22.30;99.90
8563;DHT22;16392;52.508;13.468;2023-07-31T14:32:02;22.30;99.90
8563;DHT22;16392;52.508;13.468;2023-07-31T14:34:30;21.90;99.90
8563;DHT22;16392;52.508;13.468;2023-07-31T14:36:56;22.00;99.90
8563;DHT22;16392;52.508;13.468;2023-07-31T14:39:23;22.00;99.90
8563;DHT22;16392;52.508;13.468;2023-07-31T14:41:50;22.10;99.90
8563;DHT22;16392;52.508;13.468;2023-07-31T14:44:18;22.40;99.90
8563;DHT22;16392;52.508;13.468;2023-07-31T14:46:45;22.60;99.90
8563;DHT22;16392;52.508;13.468;2023-07-31T14:49:11;22.40;96.00
8563;DHT22;16392;52.508;13.468;2023-07-31T14:51:38;22.40;99.90
8563;DHT22;16392;52.508;13.468;2023-07-31T14:54:05;22.30;99.90
8563;DHT22;16392;52.508;13.468;2023-07-31T14:56:31;22.30;99.90
8563;DHT22;16392;52.508;13.468;2023-07-31T14:58:58;22.30;99.90
8563;DHT22;16392;52.508;13.468;2023-07-31T15:01:26;22.20;99.90
8563;DHT22;16392;52.508;13.468;2023-07-31T15:03:53;22.20;99.90
8563;DHT22;16392;52.508;13.468;2023-07-31T15:06:19;22.10;99.90
8563;DHT22;16392;52.508;13.468;2023-07-31T15:08:46;22.10;99.90
8563;DHT22;16392;52.508;13.468;2023-07-31T15:11:13;22.10;99.90
8563;DHT22;16392;52.508;13.468;2023-07-31T15:13:41;22.00;99.90
8563;DHT22;16392;52.508;13.468;2023-07-31T15:16:07;21.80;99.90
8563;DHT22;16392;52.508;13.468;2023-07-31T15:18:35;21.80;99.90
8563;DHT22;16392;52.508;13.468;2023-07-31T15:21:02;21.70;99.90
8563;DHT22;16392;52.508;13.468;2023-07-31T15:23:29;21.60;99.90
8563;DHT22;16392;52.508;13.468;2023-07-31T15:25:56;21.60;99.90
8563;DHT22;16392;52.508;13.468;2023-07-31T15:28:23;21.40;99.90
8563;DHT22;16392;52.508;13.468;2023-07-31T15:30:49;21.30;99.90
8563;DHT22;16392;52.508;13.468;2023-07-31T15:33:16;21.30;99.90